Date,TemperatureHighF,TemperatureAvgF,TemperatureLowF,DewpointHighF,DewpointAvgF,DewpointLowF,HumidityHigh,HumidityAvg,HumidityLow,PressureMaxIn,PressureMinIn,WindSpeedMaxMPH,WindSpeedAvgMPH,GustSpeedMaxMPH,PrecipitationSumIn
2013-5-1,71.4,59.5,50.0,58.3,54.1,49.7,99,84,55,30.02,29.92,5,1,11,0.00
2013-5-2,71.1,57.0,53.1,61.8,54.8,52.0,99,92,66,30.02,29.95,6,1,12,0.00
2013-5-3,68.4,54.6,51.3,56.5,52.0,49.7,99,92,58,29.96,29.81,8,2,15,0.04
2013-5-4,51.6,47.9,45.5,51.4,46.7,40.7,99,96,78,29.82,29.69,8,2,16,0.31
2013-5-5,56.5,48.1,45.0,56.2,47.7,44.5,99,99,89,29.73,29.56,6,2,17,2.03
2013-5-6,71.8,56.0,45.0,51.3,46.6,39.9,99,75,39,29.67,29.53,6,1,14,0.13
2013-5-7,74.3,55.6,43.0,56.0,48.1,42.7,99,80,39,29.73,29.64,5,0,11,0.00
2013-5-8,69.6,57.1,47.7,62.9,54.4,47.4,99,92,67,29.84,29.70,2,0,5,0.04
2013-5-9,83.1,62.8,46.6,64.0,54.7,46.3,99,78,45,29.90,29.81,5,0,9,0.01
2013-5-10,80.1,63.1,48.2,65.9,57.6,47.9,99,85,50,29.91,29.75,6,0,11,0.00
2013-5-11,77.4,63.0,53.8,64.4,59.5,53.5,99,90,56,29.79,29.66,6,1,14,0.02
2013-5-12,67.3,55.4,40.6,53.5,43.5,31.2,99,68,36,29.85,29.71,6,1,12,0.01
2013-5-13,67.8,50.6,35.1,39.9,33.5,30.3,91,57,27,29.94,29.84,5,1,14,0.00
2013-5-14,82.0,58.5,32.2,56.7,43.9,31.7,99,63,36,29.99,29.85,4,0,9,0.00
2013-5-15,91.6,71.4,50.4,66.6,57.0,50.1,99,65,35,29.93,29.80,4,0,9,0.00
2013-5-16,87.8,70.6,53.1,62.6,57.7,52.3,99,68,37,29.87,29.79,2,0,7,0.00
2013-5-17,88.3,67.9,52.0,69.2,58.1,50.1,99,75,43,29.91,29.83,7,0,13,0.00
2013-5-18,74.1,63.9,57.4,69.4,61.9,53.7,99,93,74,29.89,29.83,4,0,8,0.17
2013-5-19,85.1,66.5,59.5,76.1,64.9,59.1,99,95,65,29.89,29.81,2,0,5,0.26
2013-5-20,92.3,71.9,58.8,75.7,66.2,58.6,99,85,54,29.91,29.81,4,0,7,0.00
2013-5-21,89.4,71.4,58.3,73.9,65.7,58.0,99,84,53,29.87,29.76,3,0,9,0.00
2013-5-22,87.8,67.7,56.1,76.4,64.3,55.9,99,90,54,29.83,26.76,4,0,9,0.40
2013-5-23,85.6,66.0,56.1,73.9,61.6,55.9,99,88,47,29.77,29.69,4,0,9,0.18
2013-5-24,72.9,60.7,43.5,55.9,46.7,39.6,99,63,40,30.00,29.77,7,1,14,0.01
2013-5-25,81.1,57.5,35.2,54.6,41.4,35.0,99,64,24,30.08,29.97,5,0,13,0.00
2013-5-26,80.8,59.6,45.9,57.6,50.3,41.6,99,75,40,30.05,29.96,4,0,9,0.05
2013-5-27,86.7,60.0,45.3,69.0,53.6,44.9,99,84,47,30.03,0.00,2,0,11,0.00
2013-5-28,72.7,64.7,61.2,60.2,58.6,57.4,93,81,62,29.98,29.95,1,0,2,0.00
2013-5-29,89.8,71.6,55.0,70.7,61.6,54.8,99,75,43,30.03,29.62,4,0,9,0.00
2013-5-30,85.3,63.9,52.0,70.7,59.1,51.7,99,87,54,30.06,29.62,3,0,7,0.00
2013-5-31,89.1,84.2,77.0,69.2,65.1,59.7,77,53,45,29.86,29.82,2,1,4,0.39